createdAt,value
2022-11-05T00:01:21.415Z,10.50
2022-11-05T00:04:06.932Z,14.33
2022-11-05T00:06:52.594Z,15.53
2022-11-05T00:09:29.568Z,16.20
2022-11-05T00:12:16.372Z,13.97
2022-11-05T00:15:01.744Z,14.53
2022-11-05T00:17:28.792Z,16.20
2022-11-05T00:19:55.432Z,14.73
2022-11-05T00:22:41.272Z,14.00
2022-11-05T00:25:14.204Z,15.97
2022-11-05T00:27:41.175Z,15.97
2022-11-05T00:30:09.194Z,15.43
2022-11-05T00:32:36.268Z,15.47
2022-11-05T00:35:02.989Z,17.00
2022-11-05T00:37:30.117Z,15.47
2022-11-05T00:39:57.190Z,16.43
2022-11-05T00:42:50.055Z,14.80
2022-11-05T00:45:17.352Z,16.77
2022-11-05T00:48:02.736Z,16.23
2022-11-05T00:50:29.775Z,15.37
2022-11-05T00:53:01.614Z,16.80
2022-11-05T00:55:38.124Z,17.47
2022-11-05T00:58:16.783Z,16.27
2022-11-05T01:00:49.236Z,16.57
2022-11-05T01:03:17.752Z,16.50
2022-11-05T01:05:50.419Z,17.27
2022-11-05T01:08:19.538Z,16.53
2022-11-05T01:10:49.146Z,16.97
2022-11-05T01:13:19.539Z,17.73
2022-11-05T01:15:47.461Z,18.10
2022-11-05T01:18:14.791Z,17.00
2022-11-05T01:20:41.448Z,18.40
2022-11-05T01:23:13.221Z,17.87
2022-11-05T01:25:41.235Z,18.13
2022-11-05T01:28:09.587Z,18.20
2022-11-05T01:30:38.606Z,17.13
2022-11-05T01:33:05.634Z,17.73
2022-11-05T01:35:32.713Z,17.37
2022-11-05T01:37:59.394Z,15.90
2022-11-05T01:40:26.605Z,15.17
2022-11-05T01:42:53.661Z,15.37
2022-11-05T01:45:27.589Z,14.73
2022-11-05T01:48:00.705Z,16.57
2022-11-05T01:50:41.844Z,17.20
2022-11-05T01:53:11.501Z,15.73
2022-11-05T01:55:59.555Z,17.43
2022-11-05T01:58:30.709Z,17.50
2022-11-05T02:00:57.464Z,17.73
2022-11-05T02:03:25.121Z,17.97
2022-11-05T02:05:55.257Z,17.60
2022-11-05T02:08:43.786Z,16.50
2022-11-05T02:11:14.314Z,16.77
2022-11-05T02:13:40.986Z,17.30
2022-11-05T02:16:25.469Z,15.77
2022-11-05T02:19:34.084Z,17.93
2022-11-05T02:22:38.462Z,17.17
2022-11-05T02:25:25.322Z,18.57
2022-11-05T02:28:10.604Z,16.93
2022-11-05T02:30:54.508Z,17.07
2022-11-05T02:33:56.578Z,18.07
2022-11-05T02:36:54.270Z,16.90
2022-11-05T02:39:42.969Z,18.00
2022-11-05T02:42:20.971Z,16.47
2022-11-05T02:44:53.240Z,18.20
2022-11-05T02:47:31.929Z,15.67
2022-11-05T02:50:36.115Z,15.03
2022-11-05T02:53:27.488Z,18.57
2022-11-05T02:56:02.060Z,16.73
2022-11-05T02:58:29.373Z,15.33
2022-11-05T03:00:57.312Z,17.73
2022-11-05T03:03:28.969Z,15.60
2022-11-05T03:06:14.277Z,16.43
2022-11-05T03:08:59.158Z,14.90
2022-11-05T03:11:29.613Z,17.17
2022-11-05T03:14:10.982Z,15.60
2022-11-05T03:16:42.652Z,18.03
2022-11-05T03:19:19.918Z,18.63
2022-11-05T03:21:56.301Z,18.67
2022-11-05T03:24:33.007Z,18.87
2022-11-05T03:27:05.681Z,18.23
2022-11-05T03:29:41.721Z,16.97
2022-11-05T03:32:10.895Z,18.30
2022-11-05T03:34:43.326Z,15.83
2022-11-05T03:37:11.550Z,19.23
2022-11-05T03:39:42.950Z,17.93
2022-11-05T03:42:14.475Z,16.60
2022-11-05T03:44:50.397Z,15.73
2022-11-05T03:47:24.533Z,16.47
2022-11-05T03:50:02.572Z,17.43
2022-11-05T03:52:36.227Z,16.57
2022-11-05T03:55:03.129Z,16.13
2022-11-05T03:57:32.879Z,18.23
2022-11-05T03:59:59.535Z,17.53
2022-11-05T04:02:27.472Z,16.20
2022-11-05T04:04:54.869Z,15.60
2022-11-05T04:07:40.334Z,16.10
2022-11-05T04:10:26.188Z,15.27
2022-11-05T04:13:11.773Z,16.27
2022-11-05T04:15:57.192Z,14.90
2022-11-05T04:18:24.238Z,16.43
2022-11-05T04:21:09.947Z,15.40
2022-11-05T04:23:55.391Z,16.47
2022-11-05T04:26:23.416Z,15.10
2022-11-05T04:29:09.625Z,16.23
2022-11-05T04:31:37.333Z,14.40
2022-11-05T04:34:04.541Z,17.63
2022-11-05T04:36:32.053Z,15.60
2022-11-05T04:38:59.183Z,15.73
2022-11-05T04:41:26.614Z,17.40
2022-11-05T04:43:53.235Z,17.40
2022-11-05T04:46:20.293Z,17.83
2022-11-05T04:48:47.020Z,16.47
2022-11-05T04:51:14.096Z,15.37
2022-11-05T04:53:41.316Z,17.73
2022-11-05T04:56:22.283Z,17.40
2022-11-05T04:58:49.432Z,16.60
2022-11-05T05:01:22.307Z,17.10
2022-11-05T05:03:50.764Z,15.83
2022-11-05T05:06:18.583Z,16.87
2022-11-05T05:08:47.219Z,17.97
2022-11-05T05:11:16.090Z,18.30
2022-11-05T05:13:43.145Z,18.87
2022-11-05T05:16:17.193Z,15.63
2022-11-05T05:18:46.388Z,16.93
2022-11-05T05:21:32.427Z,17.63
2022-11-05T05:23:59.212Z,19.17
2022-11-05T05:26:26.335Z,19.53
2022-11-05T05:28:53.971Z,19.47
2022-11-05T05:31:21.949Z,18.53
2022-11-05T05:33:48.701Z,17.87
2022-11-05T05:36:15.332Z,18.53
2022-11-05T05:38:42.013Z,17.17
2022-11-05T05:41:09.090Z,17.10
2022-11-05T05:43:35.746Z,17.67
2022-11-05T05:46:04.613Z,18.87
2022-11-05T05:48:31.737Z,17.63
2022-11-05T05:51:02.628Z,18.47
2022-11-05T05:53:30.451Z,18.87
2022-11-05T05:55:57.653Z,18.93
2022-11-05T05:58:28.864Z,18.60
2022-11-05T06:00:56.202Z,20.77
2022-11-05T06:03:22.887Z,20.03
2022-11-05T06:05:49.948Z,17.47
2022-11-05T06:08:16.627Z,20.17
2022-11-05T06:10:43.315Z,19.87
2022-11-05T06:13:10.590Z,18.57
2022-11-05T06:15:38.015Z,18.33
2022-11-05T06:18:04.749Z,18.83
2022-11-05T06:20:31.442Z,20.47
2022-11-05T06:22:58.738Z,17.80
2022-11-05T06:25:25.970Z,19.43
2022-11-05T06:27:53.702Z,19.20
2022-11-05T06:30:21.713Z,19.03
2022-11-05T06:32:48.351Z,17.23
2022-11-05T06:35:15.701Z,17.87
2022-11-05T06:37:42.775Z,19.57
2022-11-05T06:40:09.783Z,18.37
2022-11-05T06:42:36.450Z,17.93
2022-11-05T06:45:03.748Z,18.77
2022-11-05T06:47:30.468Z,18.37
2022-11-05T06:49:57.540Z,18.23
2022-11-05T06:52:24.293Z,19.00
2022-11-05T06:54:51.163Z,18.43
2022-11-05T06:57:18.219Z,19.63
2022-11-05T06:59:44.895Z,18.27
2022-11-05T07:02:13.637Z,19.50
2022-11-05T07:04:40.439Z,19.77
2022-11-05T07:07:07.059Z,16.97
2022-11-05T07:09:33.748Z,20.33
2022-11-05T07:12:00.793Z,18.63
2022-11-05T07:14:27.422Z,19.20
2022-11-05T07:16:54.515Z,17.10
2022-11-05T07:19:21.196Z,20.67
2022-11-05T07:21:48.686Z,19.17
2022-11-05T07:24:15.506Z,21.20
2022-11-05T07:26:42.774Z,21.27
2022-11-05T07:29:09.404Z,20.30
2022-11-05T07:31:36.485Z,19.63
2022-11-05T07:34:03.869Z,22.03
2022-11-05T07:36:30.567Z,17.10
2022-11-05T07:39:00.498Z,18.67
2022-11-05T07:41:27.923Z,21.47
2022-11-05T07:43:54.609Z,20.93
2022-11-05T07:46:21.651Z,20.87
2022-11-05T07:48:48.287Z,21.13
2022-11-05T07:51:14.905Z,20.27
2022-11-05T07:53:45.238Z,22.40
2022-11-05T07:56:12.879Z,19.57
2022-11-05T07:58:39.923Z,24.13
2022-11-05T08:01:07.256Z,19.90
2022-11-05T08:03:34.830Z,20.50
2022-11-05T08:06:01.575Z,19.57
2022-11-05T08:08:28.701Z,18.90
2022-11-05T08:11:03.196Z,19.43
2022-11-05T08:13:29.861Z,18.97
2022-11-05T08:15:57.562Z,18.93
2022-11-05T08:18:31.180Z,17.40
2022-11-05T08:20:59.676Z,20.23
2022-11-05T08:23:31.042Z,17.13
2022-11-05T08:25:58.183Z,20.47
2022-11-05T08:28:26.346Z,19.43
2022-11-05T08:30:55.526Z,18.07
2022-11-05T08:33:23.657Z,16.70
2022-11-05T08:35:50.612Z,17.60
2022-11-05T08:38:19.144Z,18.50
2022-11-05T08:40:53.851Z,18.30
2022-11-05T08:43:20.666Z,16.80
2022-11-05T08:45:47.736Z,16.93
2022-11-05T08:48:17.007Z,17.23
2022-11-05T08:50:45.921Z,16.77
2022-11-05T08:53:14.007Z,17.07
2022-11-05T08:55:41.470Z,15.60
2022-11-05T08:58:17.725Z,16.17
2022-11-05T09:00:46.316Z,15.03
2022-11-05T09:03:14.272Z,16.17
2022-11-05T09:05:42.856Z,15.00
2022-11-05T09:08:15.350Z,14.67
2022-11-05T09:10:42.859Z,14.10
2022-11-05T09:13:16.642Z,14.30
2022-11-05T09:15:45.806Z,15.40
2022-11-05T09:18:14.052Z,15.57
2022-11-05T09:20:41.034Z,14.30
2022-11-05T09:23:08.840Z,14.67
2022-11-05T09:25:35.823Z,14.43
2022-11-05T09:28:20.361Z,13.97
2022-11-05T09:30:51.801Z,13.33
2022-11-05T09:33:21.662Z,13.37
2022-11-05T09:35:48.365Z,12.70
2022-11-05T09:38:15.512Z,13.63
2022-11-05T09:41:12.689Z,13.03
2022-11-05T09:43:44.395Z,12.80
2022-11-05T09:46:22.278Z,11.93
2022-11-05T09:49:11.840Z,12.20
2022-11-05T09:51:40.803Z,11.13
2022-11-05T09:54:07.941Z,11.40
2022-11-05T09:56:37.454Z,10.53
2022-11-05T09:59:21.638Z,11.73
2022-11-05T10:01:49.531Z,9.60
2022-11-05T10:04:22.730Z,10.10
2022-11-05T10:06:55.250Z,9.63
2022-11-05T10:09:31.248Z,9.20
2022-11-05T10:12:10.021Z,8.83
2022-11-05T10:14:41.716Z,9.27
2022-11-05T10:17:22.174Z,8.53
2022-11-05T10:19:56.039Z,7.73
2022-11-05T10:22:22.776Z,8.53
2022-11-05T10:24:51.373Z,10.70
2022-11-05T10:27:30.734Z,15.57
2022-11-05T10:29:57.959Z,16.37
2022-11-05T10:32:36.396Z,7.67
2022-11-05T10:35:07.763Z,6.10
2022-11-05T10:37:39.543Z,6.17
2022-11-05T10:40:37.073Z,6.40
2022-11-05T10:43:28.877Z,5.97
2022-11-05T10:46:32.712Z,17.30
2022-11-05T10:49:11.434Z,10.90
2022-11-05T10:51:39.033Z,8.53
2022-11-05T10:54:16.968Z,6.77
2022-11-05T10:56:44.160Z,5.40
2022-11-05T10:59:25.932Z,5.30
2022-11-05T11:02:16.310Z,5.03
2022-11-05T11:04:43.406Z,4.37
2022-11-05T11:07:21.887Z,3.73
2022-11-05T11:09:49.751Z,4.00
2022-11-05T11:12:24.450Z,3.60
2022-11-05T11:15:16.680Z,3.60
2022-11-05T11:17:43.319Z,3.30
2022-11-05T11:20:28.623Z,3.10
2022-11-05T11:23:01.232Z,2.80
2022-11-05T11:25:38.154Z,3.60
2022-11-05T11:28:06.688Z,3.00
2022-11-05T11:30:35.012Z,2.93
2022-11-05T11:33:10.859Z,2.90
2022-11-05T11:35:39.356Z,2.87
2022-11-05T11:38:07.308Z,2.80
2022-11-05T11:40:38.321Z,2.83
2022-11-05T11:43:15.139Z,3.60
2022-11-05T11:45:49.613Z,3.00
2022-11-05T11:48:19.051Z,2.80
2022-11-05T11:50:48.021Z,2.43
2022-11-05T11:53:20.731Z,2.43
2022-11-05T11:56:20.957Z,2.37
2022-11-05T11:58:53.689Z,2.50
2022-11-05T12:01:38.589Z,3.77
2022-11-05T12:04:27.349Z,2.40
2022-11-05T12:07:12.314Z,2.40
2022-11-05T12:10:11.428Z,2.57
2022-11-05T12:12:46.798Z,2.20
2022-11-05T12:15:28.366Z,2.30
2022-11-05T12:18:06.473Z,2.23
2022-11-05T12:21:06.674Z,2.20
2022-11-05T12:23:45.052Z,2.30
2022-11-05T12:26:31.923Z,2.50
2022-11-05T12:29:23.114Z,2.10
2022-11-05T12:32:17.130Z,2.30
2022-11-05T12:35:13.827Z,2.17
2022-11-05T12:38:04.100Z,2.63
2022-11-05T12:40:51.474Z,2.30
2022-11-05T12:43:36.090Z,2.33
2022-11-05T12:46:16.188Z,2.20
2022-11-05T12:48:42.867Z,2.00
2022-11-05T12:51:29.743Z,2.53
2022-11-05T12:54:17.925Z,2.10
2022-11-05T12:56:49.123Z,2.27
2022-11-05T12:59:31.568Z,3.93
2022-11-05T13:02:16.892Z,2.83
2022-11-05T13:05:05.307Z,4.00
2022-11-05T13:07:36.631Z,5.60
2022-11-05T13:10:21.210Z,3.50
2022-11-05T13:12:56.089Z,2.87
2022-11-05T13:15:33.717Z,5.40
2022-11-05T13:18:05.849Z,2.93
2022-11-05T13:20:37.535Z,7.03
2022-11-05T13:23:31.029Z,8.13
2022-11-05T13:26:20.114Z,2.57
2022-11-05T13:28:47.393Z,2.90
2022-11-05T13:31:20.513Z,2.50
2022-11-05T13:33:50.641Z,2.60
2022-11-05T13:36:51.265Z,2.50
2022-11-05T13:39:46.920Z,2.97
2022-11-05T13:42:14.001Z,2.43
2022-11-05T13:44:57.912Z,2.93
2022-11-05T13:47:50.049Z,3.00
2022-11-05T13:50:25.508Z,2.80
2022-11-05T13:52:55.186Z,3.10
2022-11-05T13:55:24.673Z,2.70
2022-11-05T13:58:12.968Z,3.00
2022-11-05T14:00:58.488Z,2.40
2022-11-05T14:03:25.808Z,2.40
2022-11-05T14:06:05.453Z,2.30
2022-11-05T14:08:41.133Z,2.40
2022-11-05T14:11:33.136Z,2.47
2022-11-05T14:14:17.835Z,2.20
2022-11-05T14:16:54.934Z,2.33
2022-11-05T14:19:32.257Z,2.17
2022-11-05T14:21:59.701Z,1.90
2022-11-05T14:24:45.727Z,2.30
2022-11-05T14:27:12.770Z,2.30
2022-11-05T14:29:47.565Z,2.17
2022-11-05T14:32:17.218Z,2.43
2022-11-05T14:34:44.261Z,2.20
2022-11-05T14:37:10.843Z,2.80
2022-11-05T14:39:38.179Z,3.10
2022-11-05T14:42:14.561Z,2.70
2022-11-05T14:44:56.530Z,2.90
2022-11-05T14:47:26.124Z,2.77
2022-11-05T14:50:17.573Z,2.63
2022-11-05T14:52:53.201Z,3.07
2022-11-05T14:55:45.874Z,3.10
2022-11-05T14:58:37.049Z,3.27
2022-11-05T15:01:09.413Z,3.10
2022-11-05T15:03:46.274Z,3.10
2022-11-05T15:06:32.180Z,2.83
2022-11-05T15:08:59.344Z,3.20
2022-11-05T15:11:33.161Z,3.23
2022-11-05T15:14:17.951Z,2.90
2022-11-05T15:16:49.355Z,2.70
2022-11-05T15:19:27.233Z,2.93
2022-11-05T15:21:57.656Z,3.07
2022-11-05T15:24:28.034Z,3.70
2022-11-05T15:27:08.890Z,2.80
2022-11-05T15:29:36.047Z,3.00
2022-11-05T15:32:03.156Z,3.27
2022-11-05T15:34:35.655Z,3.00
2022-11-05T15:37:04.093Z,2.70
2022-11-05T15:39:33.558Z,2.70
2022-11-05T15:42:04.759Z,2.80
2022-11-05T15:44:40.181Z,2.90
2022-11-05T15:47:07.215Z,2.60
2022-11-05T15:49:34.210Z,2.60
2022-11-05T15:52:00.945Z,2.47
2022-11-05T15:54:30.504Z,2.43
2022-11-05T15:56:58.935Z,2.50
2022-11-05T15:59:27.469Z,2.53
2022-11-05T16:02:28.753Z,3.30
2022-11-05T16:04:57.420Z,2.70
2022-11-05T16:07:24.684Z,2.97
2022-11-05T16:10:02.221Z,3.10
2022-11-05T16:12:35.209Z,2.80
2022-11-05T16:15:10.658Z,3.00
2022-11-05T16:17:50.164Z,2.73
2022-11-05T16:20:32.275Z,3.07
2022-11-05T16:23:00.761Z,3.00
2022-11-05T16:25:30.397Z,3.50
2022-11-05T16:27:58.459Z,3.00
2022-11-05T16:30:26.239Z,2.90
2022-11-05T16:32:53.700Z,3.17
2022-11-05T16:35:25.030Z,3.00
2022-11-05T16:37:52.704Z,3.27
2022-11-05T16:40:24.322Z,3.13
2022-11-05T16:42:52.794Z,3.67
2022-11-05T16:45:22.623Z,3.17
2022-11-05T16:47:49.691Z,4.10
2022-11-05T16:50:30.820Z,3.60
2022-11-05T16:52:58.267Z,3.60
2022-11-05T16:55:25.331Z,4.07
2022-11-05T16:57:54.633Z,3.90
2022-11-05T17:00:22.162Z,3.33
2022-11-05T17:02:49.318Z,3.50
2022-11-05T17:05:26.041Z,3.77
2022-11-05T17:07:53.505Z,3.90
2022-11-05T17:10:21.214Z,3.40
2022-11-05T17:12:48.447Z,3.07
2022-11-05T17:15:27.351Z,4.07
2022-11-05T17:17:54.987Z,3.90
2022-11-05T17:20:22.041Z,4.20
2022-11-05T17:22:48.730Z,3.23
2022-11-05T17:25:15.470Z,4.13
2022-11-05T17:27:42.599Z,4.10
2022-11-05T17:30:11.285Z,4.03
2022-11-05T17:32:38.009Z,4.23
2022-11-05T17:35:07.316Z,4.33
2022-11-05T17:37:34.358Z,4.40
2022-11-05T17:40:01.524Z,4.77
2022-11-05T17:42:28.581Z,4.80
2022-11-05T17:44:55.268Z,4.93
2022-11-05T17:47:22.302Z,4.77
2022-11-05T17:49:49.401Z,4.87
2022-11-05T17:52:16.024Z,4.87
2022-11-05T17:54:42.734Z,5.00
2022-11-05T17:57:09.861Z,5.17
2022-11-05T17:59:36.563Z,4.73
2022-11-05T18:02:03.446Z,5.60
2022-11-05T18:04:30.501Z,4.93
2022-11-05T18:06:57.613Z,6.07
2022-11-05T18:09:24.270Z,5.47
2022-11-05T18:11:50.930Z,5.67
2022-11-05T18:14:23.736Z,5.83
2022-11-05T18:16:51.384Z,6.00
2022-11-05T18:19:18.597Z,5.70
2022-11-05T18:21:45.341Z,5.50
2022-11-05T18:24:12.035Z,6.17
2022-11-05T18:26:39.098Z,5.70
2022-11-05T18:29:06.169Z,6.20
2022-11-05T18:31:33.267Z,6.47
2022-11-05T18:34:00.744Z,6.43
2022-11-05T18:36:29.740Z,6.13
2022-11-05T18:39:00.819Z,6.10
2022-11-05T18:41:27.854Z,6.73
2022-11-05T18:44:01.701Z,7.00
2022-11-05T18:46:56.375Z,6.87
2022-11-05T18:49:17.206Z,7.27
2022-11-05T18:51:43.886Z,6.87
2022-11-05T18:54:10.815Z,7.20
2022-11-05T18:56:44.611Z,7.67
2022-11-05T19:02:05.172Z,8.13
2022-11-05T19:04:32.324Z,6.40
2022-11-05T19:07:04.363Z,7.20
2022-11-05T19:09:35.704Z,8.10
2022-11-05T19:12:03.089Z,7.90
2022-11-05T19:14:30.302Z,7.17
2022-11-05T19:16:57.978Z,7.43
2022-11-05T19:19:25.040Z,8.57
2022-11-05T19:21:52.531Z,8.40
2022-11-05T19:24:19.249Z,7.87
2022-11-05T19:26:46.730Z,7.60
2022-11-05T19:29:13.554Z,7.30
2022-11-05T19:31:40.646Z,8.07
2022-11-05T19:34:08.252Z,8.00
2022-11-05T19:36:35.357Z,8.00
2022-11-05T19:39:08.650Z,7.33
2022-11-05T19:41:36.075Z,7.97
2022-11-05T19:44:03.678Z,8.43
2022-11-05T19:46:31.676Z,8.67
2022-11-05T19:49:00.352Z,8.00
2022-11-05T19:51:29.412Z,8.00
2022-11-05T19:53:56.756Z,7.90
2022-11-05T19:56:26.293Z,8.43
2022-11-05T19:58:53.920Z,7.93
2022-11-05T20:01:22.074Z,8.73
2022-11-05T20:03:48.946Z,8.27
2022-11-05T20:06:31.920Z,8.23
2022-11-05T20:11:53.153Z,8.57
2022-11-05T20:14:20.235Z,8.07
2022-11-05T20:16:47.424Z,8.07
2022-11-05T20:19:16.827Z,7.80
2022-11-05T20:21:44.306Z,7.60
2022-11-05T20:24:13.199Z,7.87
2022-11-05T20:26:40.462Z,7.60
2022-11-05T20:29:07.576Z,7.23
2022-11-05T20:31:34.794Z,7.83
2022-11-05T20:34:02.044Z,8.30
2022-11-05T20:36:28.714Z,8.17
2022-11-05T20:39:02.714Z,7.80
2022-11-05T20:41:30.680Z,7.37
2022-11-05T20:43:57.711Z,7.97
2022-11-05T20:46:25.129Z,7.67
2022-11-05T20:48:52.348Z,7.30
2022-11-05T20:51:21.474Z,7.90
2022-11-05T20:53:48.919Z,7.60
2022-11-05T20:56:18.968Z,7.33
2022-11-05T20:58:46.481Z,7.47
2022-11-05T21:01:15.724Z,7.73
2022-11-05T21:03:43.686Z,7.70
2022-11-05T21:06:10.764Z,7.30
2022-11-05T21:08:38.306Z,7.13
2022-11-05T21:11:05.516Z,8.03
2022-11-05T21:13:32.987Z,7.47
2022-11-05T21:16:00.566Z,7.60
2022-11-05T21:18:30.635Z,7.57
2022-11-05T21:20:59.710Z,8.57
2022-11-05T21:23:28.270Z,8.47
2022-11-05T21:25:55.243Z,8.10
2022-11-05T21:28:22.046Z,7.50
2022-11-05T21:30:49.120Z,8.50
2022-11-05T21:33:18.077Z,8.93
2022-11-05T21:35:48.310Z,9.20
2022-11-05T21:38:17.172Z,8.40
2022-11-05T21:40:44.554Z,8.80
2022-11-05T21:43:11.729Z,7.93
2022-11-05T21:45:39.949Z,8.13
2022-11-05T21:48:07.857Z,8.27
2022-11-05T21:50:54.059Z,7.30
2022-11-05T21:53:39.975Z,7.70
2022-11-05T21:56:37.526Z,7.37
2022-11-05T21:59:23.443Z,7.90
2022-11-05T22:01:50.714Z,8.20
2022-11-05T22:04:17.414Z,8.47
2022-11-05T22:06:44.045Z,8.70
2022-11-05T22:09:10.714Z,7.93
2022-11-05T22:11:37.872Z,8.67
2022-11-05T22:14:04.913Z,8.27
2022-11-05T22:16:31.969Z,9.63
2022-11-05T22:18:59.782Z,9.33
2022-11-05T22:21:26.429Z,8.90
2022-11-05T22:23:53.539Z,8.83
2022-11-05T22:26:20.623Z,9.83
2022-11-05T22:28:47.744Z,10.17
2022-11-05T22:31:15.827Z,9.63
2022-11-05T22:33:43.294Z,9.73
2022-11-05T22:36:11.492Z,10.13
2022-11-05T22:38:39.222Z,9.67
2022-11-05T22:41:11.015Z,9.93
2022-11-05T22:43:38.186Z,9.87
2022-11-05T22:46:12.434Z,10.10
2022-11-05T22:48:40.209Z,10.53
2022-11-05T22:51:09.721Z,9.67
2022-11-05T22:53:37.094Z,10.60
2022-11-05T22:56:05.105Z,9.83
2022-11-05T22:58:32.157Z,9.80
2022-11-05T23:00:59.467Z,9.83
2022-11-05T23:03:27.324Z,10.07
2022-11-05T23:06:39.306Z,10.70
2022-11-05T23:09:46.410Z,10.30
2022-11-05T23:12:26.037Z,10.57
2022-11-05T23:14:54.236Z,10.17
2022-11-05T23:17:39.871Z,9.90
2022-11-05T23:20:28.984Z,10.40
2022-11-05T23:23:14.390Z,9.40
2022-11-05T23:25:41.156Z,9.83
2022-11-05T23:28:10.103Z,9.70
2022-11-05T23:31:01.420Z,10.00
2022-11-05T23:33:32.317Z,9.90
2022-11-05T23:36:18.373Z,9.87
2022-11-05T23:38:45.449Z,10.27
2022-11-05T23:41:30.669Z,9.67
2022-11-05T23:44:16.102Z,8.90
2022-11-05T23:47:01.534Z,8.60
2022-11-05T23:49:28.703Z,9.43
2022-11-05T23:51:55.827Z,8.00
2022-11-05T23:54:22.993Z,8.07
2022-11-05T23:56:50.027Z,8.87
2022-11-05T23:59:17.080Z,7.90
